Terminal Aerodrome Forecast
Issued by NWS

Home | Current Version | Previous Version | Text Only | Print | Product List | Glossary On
Versions: 1 2 3 4 5 6 7 8 9 10 11 12 13 14 15 16
000
FTUS43 KMQT 032338
TAFIWD
TAF
KIWD 032338Z 0400/0424 29007KT P6SM VCSH BKN050
     FM040700 28003KT P6SM BKN040
     FM041100 29003KT P6SM OVC028
     FM041700 31006KT P6SM BKN035
     FM041900 32007KT P6SM SCT060
      AMD LTD TO CLD VIS AND WIND=

USA.gov is the U.S. government's official web portal to all federal, state and local government web resources and services.